Rechercher aéroport 
image banner adimage banner adimage banner ad
image banner ad

2IA8 - Burgess Health Center

Situé à Onawa, United States

ICAO - 2IA8, IATA -

Données fournies par Airmate  

Information générale

Coordonnées: N42°1'35" W96°6'23"
Élévation : 1049 feet MSL.
Variation magnétique : 06° East
Voir autres Aéroports à Iowa

Données opérationnelles

Special qualification required
Heure actuelle UTC:
Heure actuelle locale:
Météo à : KTQE - Tekamah Muni ( 30 km )
METAR: KTQE 270454Z AUTO 16005KT 10SM CLR 19/18 A3000 RMK AO2 SLP144 T01940178
Voir NOTAMs / SUP AIP / TFR affectant cet aéroport [VIEW]
Fréquences de communication: [VIEW]

Pistes:

Coordonnées de l'aéroport

Adresse: Onawa United States

Vue satellite de 2IA8